sensor_id;sensor_type;location;lat;lon;timestamp;temperature;humidity
27544;DHT22;17996;51.056;3.656;2023-08-31T00:02:03;13.90;99.90
27544;DHT22;17996;51.056;3.656;2023-08-31T00:04:29;13.90;99.90
27544;DHT22;17996;51.056;3.656;2023-08-31T00:06:56;13.90;99.90
27544;DHT22;17996;51.056;3.656;2023-08-31T00:09:23;13.90;99.90
27544;DHT22;17996;51.056;3.656;2023-08-31T00:11:50;13.90;99.90
27544;DHT22;17996;51.056;3.656;2023-08-31T00:14:15;13.80;99.90
27544;DHT22;17996;51.056;3.656;2023-08-31T00:16:41;13.80;99.90
27544;DHT22;17996;51.056;3.656;2023-08-31T00:19:07;13.80;99.90
27544;DHT22;17996;51.056;3.656;2023-08-31T00:21:33;13.80;99.90
27544;DHT22;17996;51.056;3.656;2023-08-31T00:23:58;13.80;99.90
27544;DHT22;17996;51.056;3.656;2023-08-31T00:26:25;13.80;99.90
27544;DHT22;17996;51.056;3.656;2023-08-31T00:28:51;13.80;99.90
27544;DHT22;17996;51.056;3.656;2023-08-31T00:31:17;13.80;99.90
27544;DHT22;17996;51.056;3.656;2023-08-31T00:33:42;13.80;99.90
27544;DHT22;17996;51.056;3.656;2023-08-31T00:36:08;13.80;99.90
27544;DHT22;17996;51.056;3.656;2023-08-31T00:38:34;13.80;99.90
27544;DHT22;17996;51.056;3.656;2023-08-31T00:41:01;13.80;99.90
27544;DHT22;17996;51.056;3.656;2023-08-31T00:43:27;13.70;99.90
27544;DHT22;17996;51.056;3.656;2023-08-31T00:45:55;13.70;99.90
27544;DHT22;17996;51.056;3.656;2023-08-31T00:48:23;13.70;99.90
27544;DHT22;17996;51.056;3.656;2023-08-31T00:50:50;13.70;99.90
27544;DHT22;17996;51.056;3.656;2023-08-31T00:53:16;13.70;99.90
27544;DHT22;17996;51.056;3.656;2023-08-31T00:55:44;13.70;99.90
27544;DHT22;17996;51.056;3.656;2023-08-31T00:58:10;13.70;99.90
27544;DHT22;17996;51.056;3.656;2023-08-31T01:06:53;13.70;99.90
27544;DHT22;17996;51.056;3.656;2023-08-31T01:09:31;13.70;99.90
27544;DHT22;17996;51.056;3.656;2023-08-31T01:12:07;13.70;99.90
27544;DHT22;17996;51.056;3.656;2023-08-31T01:14:42;13.70;99.90
27544;DHT22;17996;51.056;3.656;2023-08-31T01:17:09;13.70;99.90
27544;DHT22;17996;51.056;3.656;2023-08-31T01:19:44;13.70;99.90
27544;DHT22;17996;51.056;3.656;2023-08-31T01:22:18;13.70;99.90
27544;DHT22;17996;51.056;3.656;2023-08-31T01:24:47;13.70;99.90
27544;DHT22;17996;51.056;3.656;2023-08-31T01:27:13;13.70;99.90
27544;DHT22;17996;51.056;3.656;2023-08-31T01:29:39;13.70;99.90
27544;DHT22;17996;51.056;3.656;2023-08-31T01:32:06;13.70;99.90
27544;DHT22;17996;51.056;3.656;2023-08-31T01:34:33;13.70;99.90
27544;DHT22;17996;51.056;3.656;2023-08-31T01:37:03;13.70;99.90
27544;DHT22;17996;51.056;3.656;2023-08-31T01:39:37;13.70;99.90
27544;DHT22;17996;51.056;3.656;2023-08-31T01:42:07;13.80;99.90
27544;DHT22;17996;51.056;3.656;2023-08-31T01:44:36;13.80;99.90
27544;DHT22;17996;51.056;3.656;2023-08-31T01:47:06;13.70;99.90
27544;DHT22;17996;51.056;3.656;2023-08-31T01:49:39;13.70;99.90
27544;DHT22;17996;51.056;3.656;2023-08-31T01:52:05;13.80;99.90
27544;DHT22;17996;51.056;3.656;2023-08-31T01:54:31;13.80;99.90
27544;DHT22;17996;51.056;3.656;2023-08-31T01:56:57;13.80;99.90
27544;DHT22;17996;51.056;3.656;2023-08-31T01:59:23;13.80;99.90
27544;DHT22;17996;51.056;3.656;2023-08-31T02:01:49;13.90;99.90
27544;DHT22;17996;51.056;3.656;2023-08-31T02:04:15;13.90;99.90
27544;DHT22;17996;51.056;3.656;2023-08-31T02:06:40;13.90;99.90
27544;DHT22;17996;51.056;3.656;2023-08-31T02:09:06;13.90;99.90
27544;DHT22;17996;51.056;3.656;2023-08-31T02:11:32;13.90;99.90
27544;DHT22;17996;51.056;3.656;2023-08-31T02:14:01;13.90;99.90
27544;DHT22;17996;51.056;3.656;2023-08-31T02:16:28;13.90;99.90
27544;DHT22;17996;51.056;3.656;2023-08-31T02:18:53;13.90;99.90
27544;DHT22;17996;51.056;3.656;2023-08-31T02:21:19;13.90;99.90
27544;DHT22;17996;51.056;3.656;2023-08-31T02:23:45;13.90;99.90
27544;DHT22;17996;51.056;3.656;2023-08-31T02:26:14;13.90;99.90
27544;DHT22;17996;51.056;3.656;2023-08-31T02:28:39;13.80;99.90
27544;DHT22;17996;51.056;3.656;2023-08-31T02:31:05;13.80;99.90
27544;DHT22;17996;51.056;3.656;2023-08-31T02:33:31;13.80;99.90
27544;DHT22;17996;51.056;3.656;2023-08-31T02:35:56;13.80;99.90
27544;DHT22;17996;51.056;3.656;2023-08-31T02:38:22;13.80;99.90
27544;DHT22;17996;51.056;3.656;2023-08-31T02:40:49;13.70;99.90
27544;DHT22;17996;51.056;3.656;2023-08-31T02:43:15;13.70;99.90
27544;DHT22;17996;51.056;3.656;2023-08-31T02:45:41;13.70;99.90
27544;DHT22;17996;51.056;3.656;2023-08-31T02:48:07;13.70;99.90
27544;DHT22;17996;51.056;3.656;2023-08-31T02:50:34;13.70;99.90
27544;DHT22;17996;51.056;3.656;2023-08-31T02:53:00;13.70;99.90
27544;DHT22;17996;51.056;3.656;2023-08-31T02:55:26;13.70;99.90
27544;DHT22;17996;51.056;3.656;2023-08-31T02:57:52;13.70;99.90
27544;DHT22;17996;51.056;3.656;2023-08-31T03:00:17;13.70;99.90
27544;DHT22;17996;51.056;3.656;2023-08-31T03:02:47;13.70;99.90
27544;DHT22;17996;51.056;3.656;2023-08-31T03:05:13;13.70;99.90
27544;DHT22;17996;51.056;3.656;2023-08-31T03:07:39;13.60;99.90
27544;DHT22;17996;51.056;3.656;2023-08-31T03:10:05;13.60;99.90
27544;DHT22;17996;51.056;3.656;2023-08-31T03:12:31;13.60;99.90
27544;DHT22;17996;51.056;3.656;2023-08-31T03:14:56;13.60;99.90
27544;DHT22;17996;51.056;3.656;2023-08-31T03:17:22;13.60;99.90
27544;DHT22;17996;51.056;3.656;2023-08-31T03:19:49;13.60;99.90
27544;DHT22;17996;51.056;3.656;2023-08-31T03:22:14;13.60;99.90
27544;DHT22;17996;51.056;3.656;2023-08-31T03:24:40;13.50;99.90
27544;DHT22;17996;51.056;3.656;2023-08-31T03:27:06;13.50;99.90
27544;DHT22;17996;51.056;3.656;2023-08-31T03:29:31;13.50;99.90
27544;DHT22;17996;51.056;3.656;2023-08-31T03:31:59;13.50;99.90
27544;DHT22;17996;51.056;3.656;2023-08-31T03:34:31;13.50;99.90
27544;DHT22;17996;51.056;3.656;2023-08-31T03:36:58;13.50;99.90
27544;DHT22;17996;51.056;3.656;2023-08-31T03:39:25;13.50;99.90
27544;DHT22;17996;51.056;3.656;2023-08-31T03:41:50;13.50;99.90
27544;DHT22;17996;51.056;3.656;2023-08-31T03:44:16;13.50;99.90
27544;DHT22;17996;51.056;3.656;2023-08-31T03:46:42;13.50;99.90
27544;DHT22;17996;51.056;3.656;2023-08-31T03:49:08;13.50;99.90
27544;DHT22;17996;51.056;3.656;2023-08-31T03:51:34;13.50;99.90
27544;DHT22;17996;51.056;3.656;2023-08-31T03:54:00;13.60;99.90
27544;DHT22;17996;51.056;3.656;2023-08-31T03:56:25;13.60;99.90
27544;DHT22;17996;51.056;3.656;2023-08-31T03:58:52;13.50;99.90
27544;DHT22;17996;51.056;3.656;2023-08-31T04:01:18;13.50;99.90
27544;DHT22;17996;51.056;3.656;2023-08-31T04:03:44;13.50;99.90
27544;DHT22;17996;51.056;3.656;2023-08-31T04:06:10;13.50;99.90
27544;DHT22;17996;51.056;3.656;2023-08-31T04:08:35;13.50;99.90
27544;DHT22;17996;51.056;3.656;2023-08-31T04:11:01;13.50;99.90
27544;DHT22;17996;51.056;3.656;2023-08-31T04:13:27;13.50;99.90
27544;DHT22;17996;51.056;3.656;2023-08-31T04:15:53;13.50;99.90
27544;DHT22;17996;51.056;3.656;2023-08-31T04:18:19;13.50;99.90
27544;DHT22;17996;51.056;3.656;2023-08-31T04:20:52;13.50;99.90
27544;DHT22;17996;51.056;3.656;2023-08-31T04:23:19;13.50;99.90
27544;DHT22;17996;51.056;3.656;2023-08-31T04:25:45;13.50;99.90
27544;DHT22;17996;51.056;3.656;2023-08-31T04:28:11;13.60;99.90
27544;DHT22;17996;51.056;3.656;2023-08-31T04:30:38;13.60;99.90
27544;DHT22;17996;51.056;3.656;2023-08-31T04:33:05;13.60;99.90
27544;DHT22;17996;51.056;3.656;2023-08-31T04:35:31;13.60;99.90
27544;DHT22;17996;51.056;3.656;2023-08-31T04:37:57;13.50;99.90
27544;DHT22;17996;51.056;3.656;2023-08-31T04:40:23;13.60;99.90
27544;DHT22;17996;51.056;3.656;2023-08-31T04:42:50;13.60;99.90
27544;DHT22;17996;51.056;3.656;2023-08-31T04:45:16;13.60;99.90
27544;DHT22;17996;51.056;3.656;2023-08-31T04:47:42;13.60;99.90
27544;DHT22;17996;51.056;3.656;2023-08-31T04:50:08;13.50;99.90
27544;DHT22;17996;51.056;3.656;2023-08-31T04:52:34;13.60;99.90
27544;DHT22;17996;51.056;3.656;2023-08-31T04:55:05;13.60;99.90
27544;DHT22;17996;51.056;3.656;2023-08-31T04:57:34;13.60;99.90
27544;DHT22;17996;51.056;3.656;2023-08-31T05:00:00;13.50;99.90
27544;DHT22;17996;51.056;3.656;2023-08-31T05:02:27;13.60;99.90
27544;DHT22;17996;51.056;3.656;2023-08-31T05:04:53;13.50;99.90
27544;DHT22;17996;51.056;3.656;2023-08-31T05:07:18;13.50;99.90
27544;DHT22;17996;51.056;3.656;2023-08-31T05:09:44;13.50;99.90
27544;DHT22;17996;51.056;3.656;2023-08-31T05:12:09;13.50;99.90
27544;DHT22;17996;51.056;3.656;2023-08-31T05:14:35;13.60;99.90
27544;DHT22;17996;51.056;3.656;2023-08-31T05:17:04;13.50;99.90
27544;DHT22;17996;51.056;3.656;2023-08-31T05:19:30;13.60;99.90
27544;DHT22;17996;51.056;3.656;2023-08-31T05:21:56;13.60;99.90
27544;DHT22;17996;51.056;3.656;2023-08-31T05:24:22;13.60;99.90
27544;DHT22;17996;51.056;3.656;2023-08-31T05:26:49;13.60;99.90
27544;DHT22;17996;51.056;3.656;2023-08-31T05:29:15;13.60;99.90
27544;DHT22;17996;51.056;3.656;2023-08-31T05:31:40;13.60;99.90
27544;DHT22;17996;51.056;3.656;2023-08-31T05:34:06;13.60;99.90
27544;DHT22;17996;51.056;3.656;2023-08-31T05:36:32;13.60;99.90
27544;DHT22;17996;51.056;3.656;2023-08-31T05:38:58;13.60;99.90
27544;DHT22;17996;51.056;3.656;2023-08-31T05:41:24;13.60;99.90
27544;DHT22;17996;51.056;3.656;2023-08-31T05:43:50;13.70;99.90
27544;DHT22;17996;51.056;3.656;2023-08-31T05:46:15;13.70;99.90
27544;DHT22;17996;51.056;3.656;2023-08-31T05:48:41;13.70;99.90
27544;DHT22;17996;51.056;3.656;2023-08-31T05:51:07;13.70;99.90
27544;DHT22;17996;51.056;3.656;2023-08-31T05:53:33;13.70;99.90
27544;DHT22;17996;51.056;3.656;2023-08-31T05:55:59;13.70;99.90
27544;DHT22;17996;51.056;3.656;2023-08-31T05:58:33;13.70;99.90
27544;DHT22;17996;51.056;3.656;2023-08-31T06:01:00;13.80;99.90
27544;DHT22;17996;51.056;3.656;2023-08-31T06:03:26;13.80;99.90
27544;DHT22;17996;51.056;3.656;2023-08-31T06:05:52;13.80;99.90
27544;DHT22;17996;51.056;3.656;2023-08-31T06:08:17;13.80;99.90
27544;DHT22;17996;51.056;3.656;2023-08-31T06:10:43;13.80;99.90
27544;DHT22;17996;51.056;3.656;2023-08-31T06:13:09;13.90;99.90
27544;DHT22;17996;51.056;3.656;2023-08-31T06:15:35;13.90;99.90
27544;DHT22;17996;51.056;3.656;2023-08-31T06:18:00;13.90;99.90
27544;DHT22;17996;51.056;3.656;2023-08-31T06:20:26;13.90;99.90
27544;DHT22;17996;51.056;3.656;2023-08-31T06:22:51;14.00;99.90
27544;DHT22;17996;51.056;3.656;2023-08-31T06:25:17;14.00;99.90
27544;DHT22;17996;51.056;3.656;2023-08-31T06:27:44;14.00;99.90
27544;DHT22;17996;51.056;3.656;2023-08-31T06:30:10;14.10;99.90
27544;DHT22;17996;51.056;3.656;2023-08-31T06:32:43;14.10;99.90
27544;DHT22;17996;51.056;3.656;2023-08-31T06:35:09;14.10;99.90
27544;DHT22;17996;51.056;3.656;2023-08-31T06:37:36;14.20;99.90
27544;DHT22;17996;51.056;3.656;2023-08-31T06:40:02;14.20;99.90
27544;DHT22;17996;51.056;3.656;2023-08-31T06:42:27;14.20;99.90
27544;DHT22;17996;51.056;3.656;2023-08-31T06:44:53;14.30;99.90
27544;DHT22;17996;51.056;3.656;2023-08-31T06:47:21;14.30;99.90
27544;DHT22;17996;51.056;3.656;2023-08-31T06:49:47;14.30;99.90
27544;DHT22;17996;51.056;3.656;2023-08-31T06:52:12;14.30;99.90
27544;DHT22;17996;51.056;3.656;2023-08-31T06:54:38;14.30;99.90
27544;DHT22;17996;51.056;3.656;2023-08-31T06:57:04;14.40;99.90
27544;DHT22;17996;51.056;3.656;2023-08-31T06:59:30;14.40;99.90
27544;DHT22;17996;51.056;3.656;2023-08-31T07:01:55;14.40;99.90
27544;DHT22;17996;51.056;3.656;2023-08-31T07:04:21;14.50;99.90
27544;DHT22;17996;51.056;3.656;2023-08-31T07:06:47;14.50;99.90
27544;DHT22;17996;51.056;3.656;2023-08-31T07:09:12;14.50;99.90
27544;DHT22;17996;51.056;3.656;2023-08-31T07:11:38;14.50;99.90
27544;DHT22;17996;51.056;3.656;2023-08-31T07:14:04;14.60;99.90
27544;DHT22;17996;51.056;3.656;2023-08-31T07:16:29;14.60;99.90
27544;DHT22;17996;51.056;3.656;2023-08-31T07:18:55;14.70;99.90
27544;DHT22;17996;51.056;3.656;2023-08-31T07:21:21;14.70;99.90
27544;DHT22;17996;51.056;3.656;2023-08-31T07:23:47;14.80;99.90
27544;DHT22;17996;51.056;3.656;2023-08-31T07:26:13;14.80;99.90
27544;DHT22;17996;51.056;3.656;2023-08-31T07:28:41;14.80;99.90
27544;DHT22;17996;51.056;3.656;2023-08-31T07:31:07;14.90;99.90
27544;DHT22;17996;51.056;3.656;2023-08-31T07:33:33;14.90;99.90
27544;DHT22;17996;51.056;3.656;2023-08-31T07:36:03;14.90;99.90
27544;DHT22;17996;51.056;3.656;2023-08-31T07:38:30;15.00;99.90
27544;DHT22;17996;51.056;3.656;2023-08-31T07:40:56;15.00;99.90
27544;DHT22;17996;51.056;3.656;2023-08-31T07:43:21;15.00;99.90
27544;DHT22;17996;51.056;3.656;2023-08-31T07:45:47;15.10;99.90
27544;DHT22;17996;51.056;3.656;2023-08-31T07:48:13;15.10;99.90
27544;DHT22;17996;51.056;3.656;2023-08-31T07:50:41;15.20;99.90
27544;DHT22;17996;51.056;3.656;2023-08-31T07:53:07;15.30;99.90
27544;DHT22;17996;51.056;3.656;2023-08-31T07:55:33;15.30;99.90
27544;DHT22;17996;51.056;3.656;2023-08-31T07:58:00;15.40;99.90
27544;DHT22;17996;51.056;3.656;2023-08-31T08:00:26;15.40;99.90
27544;DHT22;17996;51.056;3.656;2023-08-31T08:02:51;15.40;99.90
27544;DHT22;17996;51.056;3.656;2023-08-31T08:05:17;15.50;99.90
27544;DHT22;17996;51.056;3.656;2023-08-31T08:07:43;15.60;99.90
27544;DHT22;17996;51.056;3.656;2023-08-31T08:10:09;15.60;99.90
27544;DHT22;17996;51.056;3.656;2023-08-31T08:12:39;15.60;99.90
27544;DHT22;17996;51.056;3.656;2023-08-31T08:15:06;15.60;99.90
27544;DHT22;17996;51.056;3.656;2023-08-31T08:17:34;15.70;99.90
27544;DHT22;17996;51.056;3.656;2023-08-31T08:20:00;15.70;99.90
27544;DHT22;17996;51.056;3.656;2023-08-31T08:22:26;15.70;99.90
27544;DHT22;17996;51.056;3.656;2023-08-31T08:24:52;15.80;99.90
27544;DHT22;17996;51.056;3.656;2023-08-31T08:27:17;15.80;99.90
27544;DHT22;17996;51.056;3.656;2023-08-31T08:29:45;15.90;99.90
27544;DHT22;17996;51.056;3.656;2023-08-31T08:32:11;15.90;99.90
27544;DHT22;17996;51.056;3.656;2023-08-31T08:34:36;15.90;99.90
27544;DHT22;17996;51.056;3.656;2023-08-31T08:37:02;15.90;99.90
27544;DHT22;17996;51.056;3.656;2023-08-31T08:39:29;16.00;99.90
27544;DHT22;17996;51.056;3.656;2023-08-31T08:41:58;16.00;99.90
27544;DHT22;17996;51.056;3.656;2023-08-31T08:44:25;16.00;99.90
27544;DHT22;17996;51.056;3.656;2023-08-31T08:46:51;16.00;99.90
27544;DHT22;17996;51.056;3.656;2023-08-31T08:49:18;16.10;99.90
27544;DHT22;17996;51.056;3.656;2023-08-31T08:51:46;16.10;99.90
27544;DHT22;17996;51.056;3.656;2023-08-31T08:54:13;16.20;99.90
27544;DHT22;17996;51.056;3.656;2023-08-31T08:56:39;16.20;99.90
27544;DHT22;17996;51.056;3.656;2023-08-31T08:59:05;16.20;99.90
27544;DHT22;17996;51.056;3.656;2023-08-31T09:01:32;16.20;99.90
27544;DHT22;17996;51.056;3.656;2023-08-31T09:03:58;16.30;99.90
27544;DHT22;17996;51.056;3.656;2023-08-31T09:06:26;16.30;99.90
27544;DHT22;17996;51.056;3.656;2023-08-31T09:08:54;16.40;99.90
27544;DHT22;17996;51.056;3.656;2023-08-31T09:11:21;16.40;99.90
27544;DHT22;17996;51.056;3.656;2023-08-31T09:13:48;16.50;99.90
27544;DHT22;17996;51.056;3.656;2023-08-31T09:16:30;16.50;99.90
27544;DHT22;17996;51.056;3.656;2023-08-31T09:18:57;16.60;99.90
27544;DHT22;17996;51.056;3.656;2023-08-31T09:21:34;16.70;99.90
27544;DHT22;17996;51.056;3.656;2023-08-31T09:24:00;16.70;99.90
27544;DHT22;17996;51.056;3.656;2023-08-31T09:26:25;16.70;99.90
27544;DHT22;17996;51.056;3.656;2023-08-31T09:28:52;16.80;99.90
27544;DHT22;17996;51.056;3.656;2023-08-31T09:31:17;16.90;99.90
27544;DHT22;17996;51.056;3.656;2023-08-31T09:33:50;16.90;99.90
27544;DHT22;17996;51.056;3.656;2023-08-31T09:36:16;17.10;99.90
27544;DHT22;17996;51.056;3.656;2023-08-31T09:38:43;17.30;99.90
27544;DHT22;17996;51.056;3.656;2023-08-31T09:41:09;17.40;99.90
27544;DHT22;17996;51.056;3.656;2023-08-31T09:43:34;17.50;99.90
27544;DHT22;17996;51.056;3.656;2023-08-31T09:46:03;17.70;99.90
27544;DHT22;17996;51.056;3.656;2023-08-31T09:48:29;17.80;99.90
27544;DHT22;17996;51.056;3.656;2023-08-31T09:50:56;17.80;99.90
27544;DHT22;17996;51.056;3.656;2023-08-31T09:53:24;17.90;99.90
27544;DHT22;17996;51.056;3.656;2023-08-31T09:55:51;17.90;99.90
27544;DHT22;17996;51.056;3.656;2023-08-31T09:58:20;18.00;99.90
27544;DHT22;17996;51.056;3.656;2023-08-31T10:00:47;18.00;99.90
27544;DHT22;17996;51.056;3.656;2023-08-31T10:03:14;18.00;99.90
27544;DHT22;17996;51.056;3.656;2023-08-31T10:05:44;18.00;99.90
27544;DHT22;17996;51.056;3.656;2023-08-31T10:08:11;17.90;99.90
27544;DHT22;17996;51.056;3.656;2023-08-31T10:10:37;17.80;99.90
27544;DHT22;17996;51.056;3.656;2023-08-31T10:13:07;17.70;99.90
27544;DHT22;17996;51.056;3.656;2023-08-31T10:15:34;17.70;99.90
27544;DHT22;17996;51.056;3.656;2023-08-31T10:18:01;17.70;99.90
27544;DHT22;17996;51.056;3.656;2023-08-31T10:20:28;17.70;99.90
27544;DHT22;17996;51.056;3.656;2023-08-31T10:22:57;17.80;99.90
27544;DHT22;17996;51.056;3.656;2023-08-31T10:25:23;17.80;99.90
27544;DHT22;17996;51.056;3.656;2023-08-31T10:27:49;17.90;99.90
27544;DHT22;17996;51.056;3.656;2023-08-31T10:30:26;18.00;99.90
27544;DHT22;17996;51.056;3.656;2023-08-31T10:38:23;18.20;99.90
27544;DHT22;17996;51.056;3.656;2023-08-31T10:41:25;18.30;99.90
27544;DHT22;17996;51.056;3.656;2023-08-31T10:46:45;18.30;99.90
27544;DHT22;17996;51.056;3.656;2023-08-31T10:51:44;18.30;99.90
27544;DHT22;17996;51.056;3.656;2023-08-31T10:54:11;18.40;99.90
27544;DHT22;17996;51.056;3.656;2023-08-31T10:59:20;18.40;99.90
27544;DHT22;17996;51.056;3.656;2023-08-31T11:01:59;18.40;99.90
27544;DHT22;17996;51.056;3.656;2023-08-31T11:04:30;18.50;99.90
27544;DHT22;17996;51.056;3.656;2023-08-31T11:07:15;18.40;99.90
27544;DHT22;17996;51.056;3.656;2023-08-31T11:09:42;18.40;99.90
27544;DHT22;17996;51.056;3.656;2023-08-31T11:12:08;18.30;99.90
27544;DHT22;17996;51.056;3.656;2023-08-31T11:14:34;18.30;99.90
27544;DHT22;17996;51.056;3.656;2023-08-31T11:17:00;18.30;99.90
27544;DHT22;17996;51.056;3.656;2023-08-31T11:19:27;18.40;99.90
27544;DHT22;17996;51.056;3.656;2023-08-31T11:21:54;18.50;99.90
27544;DHT22;17996;51.056;3.656;2023-08-31T11:24:20;18.60;99.90
27544;DHT22;17996;51.056;3.656;2023-08-31T11:26:50;18.70;99.90
27544;DHT22;17996;51.056;3.656;2023-08-31T11:29:16;18.70;99.90
27544;DHT22;17996;51.056;3.656;2023-08-31T11:31:42;18.80;99.90
27544;DHT22;17996;51.056;3.656;2023-08-31T11:34:15;19.00;99.90
27544;DHT22;17996;51.056;3.656;2023-08-31T11:36:42;19.20;99.90
27544;DHT22;17996;51.056;3.656;2023-08-31T11:39:14;19.30;99.90
27544;DHT22;17996;51.056;3.656;2023-08-31T11:41:42;19.40;99.90
27544;DHT22;17996;51.056;3.656;2023-08-31T11:44:13;19.50;99.90
27544;DHT22;17996;51.056;3.656;2023-08-31T11:46:44;19.50;99.90
27544;DHT22;17996;51.056;3.656;2023-08-31T11:49:11;19.50;99.90
27544;DHT22;17996;51.056;3.656;2023-08-31T11:51:39;19.60;99.90
27544;DHT22;17996;51.056;3.656;2023-08-31T11:54:05;19.60;99.90
27544;DHT22;17996;51.056;3.656;2023-08-31T11:56:45;19.60;99.90
27544;DHT22;17996;51.056;3.656;2023-08-31T11:59:18;19.60;99.90
27544;DHT22;17996;51.056;3.656;2023-08-31T12:01:47;19.60;99.90
27544;DHT22;17996;51.056;3.656;2023-08-31T12:04:16;19.60;99.90
27544;DHT22;17996;51.056;3.656;2023-08-31T12:06:46;19.60;99.90
27544;DHT22;17996;51.056;3.656;2023-08-31T12:09:14;19.60;99.90
27544;DHT22;17996;51.056;3.656;2023-08-31T12:11:39;19.60;99.90
27544;DHT22;17996;51.056;3.656;2023-08-31T12:14:19;19.70;99.90
27544;DHT22;17996;51.056;3.656;2023-08-31T12:16:44;19.70;99.90
27544;DHT22;17996;51.056;3.656;2023-08-31T12:19:10;19.70;99.90
27544;DHT22;17996;51.056;3.656;2023-08-31T12:21:36;19.70;99.90
27544;DHT22;17996;51.056;3.656;2023-08-31T12:24:02;19.80;99.90
27544;DHT22;17996;51.056;3.656;2023-08-31T12:26:29;19.80;99.90
27544;DHT22;17996;51.056;3.656;2023-08-31T12:28:55;19.80;99.90
27544;DHT22;17996;51.056;3.656;2023-08-31T12:31:22;19.80;99.90
27544;DHT22;17996;51.056;3.656;2023-08-31T12:33:48;19.80;99.90
27544;DHT22;17996;51.056;3.656;2023-08-31T12:36:14;19.90;99.90
27544;DHT22;17996;51.056;3.656;2023-08-31T12:38:40;19.90;99.90
27544;DHT22;17996;51.056;3.656;2023-08-31T12:41:06;20.00;99.90
27544;DHT22;17996;51.056;3.656;2023-08-31T12:43:31;20.10;99.90
27544;DHT22;17996;51.056;3.656;2023-08-31T12:45:57;20.20;99.90
27544;DHT22;17996;51.056;3.656;2023-08-31T12:48:23;20.30;99.90
27544;DHT22;17996;51.056;3.656;2023-08-31T12:50:49;20.40;99.90
27544;DHT22;17996;51.056;3.656;2023-08-31T12:53:15;20.60;99.90
27544;DHT22;17996;51.056;3.656;2023-08-31T12:55:41;20.70;99.90
27544;DHT22;17996;51.056;3.656;2023-08-31T12:58:07;20.90;99.90
27544;DHT22;17996;51.056;3.656;2023-08-31T13:00:34;21.00;99.90
27544;DHT22;17996;51.056;3.656;2023-08-31T13:03:00;21.20;99.90
27544;DHT22;17996;51.056;3.656;2023-08-31T13:05:29;21.30;99.90
27544;DHT22;17996;51.056;3.656;2023-08-31T13:07:55;21.40;99.90
27544;DHT22;17996;51.056;3.656;2023-08-31T13:10:20;21.50;99.90
27544;DHT22;17996;51.056;3.656;2023-08-31T13:12:46;21.50;99.90
27544;DHT22;17996;51.056;3.656;2023-08-31T13:15:12;21.50;99.90
27544;DHT22;17996;51.056;3.656;2023-08-31T13:17:38;21.50;99.90
27544;DHT22;17996;51.056;3.656;2023-08-31T13:20:04;21.50;99.90
27544;DHT22;17996;51.056;3.656;2023-08-31T13:22:30;21.60;99.90
27544;DHT22;17996;51.056;3.656;2023-08-31T13:24:57;21.60;99.90
27544;DHT22;17996;51.056;3.656;2023-08-31T13:27:22;21.60;99.90
27544;DHT22;17996;51.056;3.656;2023-08-31T13:29:48;21.60;99.90
27544;DHT22;17996;51.056;3.656;2023-08-31T13:32:14;21.70;99.90
27544;DHT22;17996;51.056;3.656;2023-08-31T13:34:39;21.70;99.90
27544;DHT22;17996;51.056;3.656;2023-08-31T13:37:05;21.70;99.90
27544;DHT22;17996;51.056;3.656;2023-08-31T13:39:33;21.60;99.90
27544;DHT22;17996;51.056;3.656;2023-08-31T13:41:59;21.60;99.90
27544;DHT22;17996;51.056;3.656;2023-08-31T13:44:27;21.70;99.90
27544;DHT22;17996;51.056;3.656;2023-08-31T13:46:53;21.70;99.90
27544;DHT22;17996;51.056;3.656;2023-08-31T13:49:18;21.60;99.90
27544;DHT22;17996;51.056;3.656;2023-08-31T13:51:44;21.50;99.90
27544;DHT22;17996;51.056;3.656;2023-08-31T13:54:11;21.40;99.90
27544;DHT22;17996;51.056;3.656;2023-08-31T13:56:37;21.30;99.90
27544;DHT22;17996;51.056;3.656;2023-08-31T13:59:03;21.30;99.90
27544;DHT22;17996;51.056;3.656;2023-08-31T14:01:30;21.30;99.90
27544;DHT22;17996;51.056;3.656;2023-08-31T14:03:55;21.20;99.90
27544;DHT22;17996;51.056;3.656;2023-08-31T14:06:21;21.10;99.90
27544;DHT22;17996;51.056;3.656;2023-08-31T14:08:47;21.00;99.90
27544;DHT22;17996;51.056;3.656;2023-08-31T14:11:13;21.00;99.90
27544;DHT22;17996;51.056;3.656;2023-08-31T14:13:39;21.00;99.90
27544;DHT22;17996;51.056;3.656;2023-08-31T14:16:06;20.90;99.90
27544;DHT22;17996;51.056;3.656;2023-08-31T14:18:32;20.90;99.90
27544;DHT22;17996;51.056;3.656;2023-08-31T14:20:58;20.90;99.90
27544;DHT22;17996;51.056;3.656;2023-08-31T14:23:25;20.90;99.90
27544;DHT22;17996;51.056;3.656;2023-08-31T14:25:51;20.90;99.90
27544;DHT22;17996;51.056;3.656;2023-08-31T14:28:16;20.80;99.90
27544;DHT22;17996;51.056;3.656;2023-08-31T14:30:42;20.80;99.90
27544;DHT22;17996;51.056;3.656;2023-08-31T14:33:08;20.80;99.90
27544;DHT22;17996;51.056;3.656;2023-08-31T14:35:37;20.70;99.90
27544;DHT22;17996;51.056;3.656;2023-08-31T14:38:04;20.70;99.90
27544;DHT22;17996;51.056;3.656;2023-08-31T14:40:29;20.60;99.90
27544;DHT22;17996;51.056;3.656;2023-08-31T14:42:55;20.60;99.90
27544;DHT22;17996;51.056;3.656;2023-08-31T14:45:21;20.50;99.90
27544;DHT22;17996;51.056;3.656;2023-08-31T14:47:46;20.50;99.90
27544;DHT22;17996;51.056;3.656;2023-08-31T14:50:12;20.40;99.90
27544;DHT22;17996;51.056;3.656;2023-08-31T14:52:38;20.40;99.90
27544;DHT22;17996;51.056;3.656;2023-08-31T14:55:04;20.50;99.90
27544;DHT22;17996;51.056;3.656;2023-08-31T14:57:30;20.50;99.90
27544;DHT22;17996;51.056;3.656;2023-08-31T14:59:56;20.50;99.90
27544;DHT22;17996;51.056;3.656;2023-08-31T15:02:24;20.60;99.90
27544;DHT22;17996;51.056;3.656;2023-08-31T15:04:50;20.50;99.90
27544;DHT22;17996;51.056;3.656;2023-08-31T15:07:17;20.40;99.90
27544;DHT22;17996;51.056;3.656;2023-08-31T15:09:43;20.40;99.90
27544;DHT22;17996;51.056;3.656;2023-08-31T15:12:09;20.20;99.90
27544;DHT22;17996;51.056;3.656;2023-08-31T15:14:35;20.20;99.90
27544;DHT22;17996;51.056;3.656;2023-08-31T15:17:00;20.10;99.90
27544;DHT22;17996;51.056;3.656;2023-08-31T15:19:26;20.10;99.90
27544;DHT22;17996;51.056;3.656;2023-08-31T15:21:52;20.00;99.90
27544;DHT22;17996;51.056;3.656;2023-08-31T15:24:17;20.00;99.90
27544;DHT22;17996;51.056;3.656;2023-08-31T15:26:43;19.90;99.90
27544;DHT22;17996;51.056;3.656;2023-08-31T15:29:09;19.90;99.90
27544;DHT22;17996;51.056;3.656;2023-08-31T15:31:35;20.00;99.90
27544;DHT22;17996;51.056;3.656;2023-08-31T15:34:00;20.00;99.90
27544;DHT22;17996;51.056;3.656;2023-08-31T15:36:26;20.10;99.90
27544;DHT22;17996;51.056;3.656;2023-08-31T15:38:52;20.00;99.90
27544;DHT22;17996;51.056;3.656;2023-08-31T15:41:18;20.00;99.90
27544;DHT22;17996;51.056;3.656;2023-08-31T15:43:44;20.00;99.90
27544;DHT22;17996;51.056;3.656;2023-08-31T15:46:09;19.90;99.90
27544;DHT22;17996;51.056;3.656;2023-08-31T15:48:35;19.80;99.90